createdAt,value
2023-04-02T00:02:18.159Z,7.43
2023-04-02T00:04:45.135Z,7.40
2023-04-02T00:07:31.161Z,5.63
2023-04-02T00:09:58.181Z,5.53
2023-04-02T00:12:25.032Z,6.60
2023-04-02T00:14:54.563Z,5.77
2023-04-02T00:17:24.685Z,5.30
2023-04-02T00:19:51.673Z,4.73
2023-04-02T00:22:21.206Z,5.23
2023-04-02T00:24:51.949Z,4.40
2023-04-02T00:27:19.374Z,4.93
2023-04-02T00:29:54.614Z,4.57
2023-04-02T00:32:29.875Z,5.03
2023-04-02T00:34:58.008Z,4.83
2023-04-02T00:37:28.539Z,5.03
2023-04-02T00:40:01.019Z,4.53
2023-04-02T00:42:31.169Z,4.90
2023-04-02T00:44:59.330Z,4.90
2023-04-02T00:47:32.051Z,5.20
2023-04-02T00:50:19.286Z,6.00
2023-04-02T00:52:49.267Z,5.70
2023-04-02T00:55:23.893Z,6.07
2023-04-02T00:57:51.696Z,5.97
2023-04-02T01:00:18.697Z,5.90
2023-04-02T01:03:17.252Z,6.50
2023-04-02T01:05:47.925Z,6.23
2023-04-02T01:08:43.106Z,6.53
2023-04-02T01:11:37.932Z,6.57
2023-04-02T01:14:23.677Z,6.47
2023-04-02T01:16:50.755Z,5.87
2023-04-02T01:20:00.991Z,6.57
2023-04-02T01:22:35.217Z,6.87
2023-04-02T01:25:04.561Z,7.07
2023-04-02T01:27:45.018Z,7.57
2023-04-02T01:30:12.651Z,7.30
2023-04-02T01:32:41.073Z,7.10
2023-04-02T01:35:09.642Z,7.57
2023-04-02T01:37:57.538Z,7.77
2023-04-02T01:40:36.445Z,7.80
2023-04-02T01:43:25.132Z,7.57
2023-04-02T01:45:53.088Z,7.40
2023-04-02T01:48:25.047Z,8.07
2023-04-02T01:50:55.169Z,7.50
2023-04-02T01:53:23.466Z,8.23
2023-04-02T01:55:54.220Z,7.33
2023-04-02T01:58:27.225Z,7.40
2023-04-02T02:01:06.844Z,6.37
2023-04-02T02:03:34.371Z,6.73
2023-04-02T02:06:05.970Z,6.07
2023-04-02T02:08:52.243Z,6.40
2023-04-02T02:11:22.270Z,6.33
2023-04-02T02:13:54.657Z,7.13
2023-04-02T02:16:22.146Z,6.90
2023-04-02T02:18:51.868Z,7.00
2023-04-02T02:21:27.571Z,7.13
2023-04-02T02:23:55.645Z,6.93
2023-04-02T02:26:23.593Z,6.80
2023-04-02T02:28:53.740Z,7.43
2023-04-02T02:31:28.025Z,6.77
2023-04-02T02:34:01.970Z,7.10
2023-04-02T02:36:40.091Z,6.77
2023-04-02T02:39:22.490Z,6.50
2023-04-02T02:41:57.179Z,6.10
2023-04-02T02:44:48.958Z,6.10
2023-04-02T02:47:22.496Z,6.07
2023-04-02T02:50:00.509Z,5.70
2023-04-02T02:52:31.802Z,5.87
2023-04-02T02:55:16.382Z,5.60
2023-04-02T02:58:09.797Z,6.20
2023-04-02T03:00:46.152Z,6.20
2023-04-02T03:03:22.058Z,6.50
2023-04-02T03:05:54.440Z,6.77
2023-04-02T03:08:28.771Z,6.60
2023-04-02T03:11:20.260Z,7.10
2023-04-02T03:13:49.798Z,6.93
2023-04-02T03:16:28.784Z,7.07
2023-04-02T03:19:04.798Z,8.57
2023-04-02T03:21:39.151Z,8.87
2023-04-02T03:24:13.771Z,9.73
2023-04-02T03:26:44.384Z,10.10
2023-04-02T03:29:17.884Z,10.97
2023-04-02T03:31:57.008Z,10.57
2023-04-02T03:34:33.068Z,10.07
2023-04-02T03:37:08.066Z,9.57
2023-04-02T03:39:43.142Z,10.27
2023-04-02T03:42:26.373Z,10.40
2023-04-02T03:45:01.345Z,10.07
2023-04-02T03:47:31.241Z,10.10
2023-04-02T03:50:17.935Z,10.00
2023-04-02T03:52:45.262Z,9.53
2023-04-02T03:55:23.751Z,9.33
2023-04-02T03:58:09.809Z,9.50
2023-04-02T04:00:45.074Z,9.67
2023-04-02T04:03:15.493Z,9.60
2023-04-02T04:05:56.141Z,9.17
2023-04-02T04:08:42.502Z,8.13
2023-04-02T04:11:15.001Z,8.77
2023-04-02T04:13:46.068Z,7.80
2023-04-02T04:16:40.503Z,7.67
2023-04-02T04:19:22.673Z,7.67
2023-04-02T04:21:54.021Z,8.13
2023-04-02T04:24:25.164Z,8.70
2023-04-02T04:27:04.223Z,8.87
2023-04-02T04:29:49.536Z,8.80
2023-04-02T04:32:27.945Z,8.60
2023-04-02T04:35:27.027Z,8.37
2023-04-02T04:37:59.342Z,8.50
2023-04-02T04:40:30.162Z,8.73
2023-04-02T04:43:05.985Z,9.30
2023-04-02T04:45:52.253Z,9.63
2023-04-02T04:48:26.839Z,9.83
2023-04-02T04:51:17.699Z,9.97
2023-04-02T04:53:50.855Z,8.50
2023-04-02T04:56:27.126Z,9.60
2023-04-02T04:59:07.372Z,9.13
2023-04-02T05:01:44.060Z,8.43
2023-04-02T05:04:23.704Z,8.27
2023-04-02T05:07:13.683Z,7.67
2023-04-02T05:09:51.020Z,7.73
2023-04-02T05:12:32.064Z,7.73
2023-04-02T05:15:31.832Z,7.30
2023-04-02T05:18:11.691Z,7.07
2023-04-02T05:20:52.801Z,9.83
2023-04-02T05:23:28.485Z,8.90
2023-04-02T05:26:07.114Z,9.93
2023-04-02T05:28:46.579Z,9.07
2023-04-02T05:31:26.731Z,7.87
2023-04-02T05:33:55.351Z,7.27
2023-04-02T05:36:25.772Z,8.37
2023-04-02T05:38:57.765Z,7.47
2023-04-02T05:41:38.514Z,8.30
2023-04-02T05:44:24.430Z,7.13
2023-04-02T05:46:56.436Z,7.37
2023-04-02T05:49:33.711Z,7.53
2023-04-02T05:52:03.356Z,7.10
2023-04-02T05:54:40.188Z,7.80
2023-04-02T05:57:15.882Z,7.53
2023-04-02T05:59:55.116Z,7.37
2023-04-02T06:02:31.169Z,7.20
2023-04-02T06:05:05.537Z,7.30
2023-04-02T06:07:45.171Z,6.97
2023-04-02T06:10:32.647Z,7.40
2023-04-02T06:13:09.195Z,7.10
2023-04-02T06:15:40.503Z,8.00
2023-04-02T06:18:23.122Z,6.50
2023-04-02T06:20:51.751Z,6.93
2023-04-02T06:23:24.350Z,6.90
2023-04-02T06:26:04.978Z,7.27
2023-04-02T06:28:46.774Z,7.53
2023-04-02T06:31:22.169Z,8.40
2023-04-02T06:33:55.055Z,7.70
2023-04-02T06:36:29.480Z,7.33
2023-04-02T06:39:08.333Z,7.60
2023-04-02T06:41:36.510Z,7.50
2023-04-02T06:44:28.351Z,8.60
2023-04-02T06:47:20.192Z,8.43
2023-04-02T06:50:07.613Z,8.87
2023-04-02T06:53:02.316Z,9.53
2023-04-02T06:55:51.981Z,9.00
2023-04-02T06:58:25.074Z,9.00
2023-04-02T07:00:58.024Z,9.53
2023-04-02T07:03:36.704Z,9.27
2023-04-02T07:06:18.649Z,9.43
2023-04-02T07:08:50.726Z,9.80
2023-04-02T07:11:22.395Z,9.80
2023-04-02T07:13:52.151Z,9.23
2023-04-02T07:16:22.270Z,9.87
2023-04-02T07:18:49.473Z,9.70
2023-04-02T07:21:17.001Z,9.23
2023-04-02T07:23:44.858Z,8.67
2023-04-02T07:26:17.395Z,8.33
2023-04-02T07:28:44.915Z,8.43
2023-04-02T07:31:18.967Z,7.70
2023-04-02T07:33:46.402Z,7.03
2023-04-02T07:36:16.098Z,7.07
2023-04-02T07:38:43.558Z,6.93
2023-04-02T07:41:11.722Z,6.63
2023-04-02T07:43:39.020Z,6.73
2023-04-02T07:46:06.951Z,5.73
2023-04-02T07:48:34.074Z,5.20
2023-04-02T07:51:03.551Z,5.10
2023-04-02T07:53:35.783Z,5.50
2023-04-02T07:56:03.587Z,5.33
2023-04-02T07:58:31.103Z,5.30
2023-04-02T08:00:58.458Z,5.47
2023-04-02T08:03:26.027Z,6.07
2023-04-02T08:05:58.164Z,5.03
2023-04-02T08:08:26.059Z,5.00
2023-04-02T08:10:53.056Z,5.17
2023-04-02T08:13:20.869Z,5.27
2023-04-02T08:15:47.953Z,5.10
2023-04-02T08:18:14.911Z,5.27
2023-04-02T08:20:41.695Z,5.90
2023-04-02T08:23:17.191Z,4.87
2023-04-02T08:25:47.517Z,4.47
2023-04-02T08:28:14.511Z,5.43
2023-04-02T08:30:42.715Z,5.60
2023-04-02T08:33:10.098Z,6.43
2023-04-02T08:35:37.469Z,5.60
2023-04-02T08:38:05.261Z,5.90
2023-04-02T08:40:38.754Z,6.13
2023-04-02T08:43:20.338Z,5.97
2023-04-02T08:45:57.183Z,6.37
2023-04-02T08:48:26.781Z,7.00
2023-04-02T08:50:54.887Z,7.30
2023-04-02T08:53:30.917Z,7.77
2023-04-02T08:56:06.039Z,6.93
2023-04-02T08:58:42.483Z,7.27
2023-04-02T09:01:35.539Z,7.13
2023-04-02T09:04:05.458Z,7.73
2023-04-02T09:06:35.049Z,6.83
2023-04-02T09:09:05.676Z,6.77
2023-04-02T09:11:49.072Z,7.33
2023-04-02T09:14:21.870Z,6.50
2023-04-02T09:16:55.907Z,6.10
2023-04-02T09:19:26.881Z,6.13
2023-04-02T09:22:06.129Z,6.20
2023-04-02T09:24:33.675Z,5.87
2023-04-02T09:27:00.819Z,5.77
2023-04-02T09:29:41.396Z,5.43
2023-04-02T09:32:18.821Z,5.67
2023-04-02T09:34:45.858Z,5.93
2023-04-02T09:37:23.060Z,5.57
2023-04-02T09:39:49.984Z,5.47
2023-04-02T09:42:35.012Z,5.10
2023-04-02T09:45:20.758Z,4.73
2023-04-02T09:47:48.098Z,4.53
2023-04-02T09:50:15.034Z,5.50
2023-04-02T09:52:45.434Z,4.30
2023-04-02T09:55:23.023Z,4.60
2023-04-02T09:57:50.782Z,4.40
2023-04-02T10:00:32.048Z,4.63
2023-04-02T10:03:03.768Z,4.60
2023-04-02T10:05:40.476Z,4.60
2023-04-02T10:08:20.122Z,4.30
2023-04-02T10:10:50.494Z,3.87
2023-04-02T10:13:23.693Z,4.27
2023-04-02T10:16:04.347Z,4.13
2023-04-02T10:18:40.141Z,3.67
2023-04-02T10:21:08.556Z,3.93
2023-04-02T10:23:35.391Z,3.83
2023-04-02T10:26:28.274Z,3.67
2023-04-02T10:29:01.143Z,4.10
2023-04-02T10:31:41.269Z,4.67
2023-04-02T10:34:15.787Z,4.03
2023-04-02T10:36:51.768Z,3.70
2023-04-02T10:39:40.507Z,3.73
2023-04-02T10:42:31.963Z,3.30
2023-04-02T10:45:18.639Z,3.87
2023-04-02T10:48:03.802Z,3.20
2023-04-02T10:50:32.426Z,4.03
2023-04-02T10:53:17.297Z,3.43
2023-04-02T10:55:48.786Z,3.40
2023-04-02T10:58:25.929Z,3.40
2023-04-02T11:00:57.173Z,3.13
2023-04-02T11:03:37.556Z,3.20
2023-04-02T11:06:14.647Z,3.00
2023-04-02T11:08:44.464Z,3.13
2023-04-02T11:11:22.677Z,2.97
2023-04-02T11:14:01.562Z,3.20
2023-04-02T11:16:28.984Z,2.80
2023-04-02T11:19:14.859Z,2.73
2023-04-02T11:21:58.025Z,3.07
2023-04-02T11:24:26.076Z,2.70
2023-04-02T11:26:54.972Z,3.17
2023-04-02T11:29:31.075Z,3.23
2023-04-02T11:32:27.548Z,3.23
2023-04-02T11:35:35.716Z,2.93
2023-04-02T11:38:11.430Z,3.97
2023-04-02T11:40:55.172Z,2.87
2023-04-02T11:43:34.523Z,2.90
2023-04-02T11:46:21.048Z,2.97
2023-04-02T11:48:48.402Z,2.97
2023-04-02T11:51:23.402Z,2.73
2023-04-02T11:53:51.788Z,2.90
2023-04-02T11:56:21.988Z,2.50
2023-04-02T11:59:35.736Z,2.70
2023-04-02T12:02:21.883Z,3.00
2023-04-02T12:05:19.832Z,2.80
2023-04-02T12:08:08.457Z,2.47
2023-04-02T12:10:55.397Z,3.10
2023-04-02T12:13:42.500Z,2.97
2023-04-02T12:16:13.245Z,2.80
2023-04-02T12:18:55.399Z,2.50
2023-04-02T12:21:26.136Z,3.00
2023-04-02T12:23:56.258Z,2.97
2023-04-02T12:26:37.550Z,3.03
2023-04-02T12:29:27.316Z,2.40
2023-04-02T12:31:58.752Z,2.30
2023-04-02T12:34:28.408Z,2.70
2023-04-02T12:37:04.904Z,2.13
2023-04-02T12:39:33.761Z,2.10
2023-04-02T12:42:00.880Z,2.57
2023-04-02T12:44:29.461Z,2.17
2023-04-02T12:46:57.336Z,2.67
2023-04-02T12:49:40.210Z,2.50
2023-04-02T12:52:18.553Z,2.90
2023-04-02T12:54:57.235Z,2.23
2023-04-02T12:57:27.157Z,2.40
2023-04-02T12:59:55.625Z,2.60
2023-04-02T13:02:24.654Z,2.43
2023-04-02T13:04:53.765Z,2.40
2023-04-02T13:07:23.027Z,2.20
2023-04-02T13:09:52.376Z,2.63
2023-04-02T13:12:38.737Z,2.37
2023-04-02T13:15:23.572Z,2.50
2023-04-02T13:18:19.225Z,1.90
2023-04-02T13:21:03.372Z,2.40
2023-04-02T13:23:30.407Z,2.20
2023-04-02T13:26:03.059Z,2.37
2023-04-02T13:28:29.892Z,2.30
2023-04-02T13:30:56.673Z,2.67
2023-04-02T13:33:23.898Z,2.30
2023-04-02T13:35:53.616Z,2.40
2023-04-02T13:38:20.916Z,2.50
2023-04-02T13:40:47.806Z,2.03
2023-04-02T13:43:19.237Z,2.00
2023-04-02T13:45:50.894Z,2.60
2023-04-02T13:48:19.682Z,2.03
2023-04-02T13:50:47.002Z,2.00
2023-04-02T13:53:25.235Z,2.50
2023-04-02T13:55:52.674Z,2.30
2023-04-02T13:58:19.612Z,2.20
2023-04-02T14:00:47.671Z,1.93
2023-04-02T14:03:18.561Z,2.00
2023-04-02T14:05:53.770Z,2.00
2023-04-02T14:08:33.486Z,2.10
2023-04-02T14:11:28.104Z,2.23
2023-04-02T14:14:24.601Z,2.20
2023-04-02T14:16:57.430Z,2.13
2023-04-02T14:19:30.109Z,1.87
2023-04-02T14:22:15.600Z,2.17
2023-04-02T14:24:45.481Z,1.87
2023-04-02T14:27:30.968Z,2.00
2023-04-02T14:30:42.964Z,2.20
2023-04-02T14:33:37.324Z,2.10
2023-04-02T14:36:15.976Z,1.90
2023-04-02T14:39:06.525Z,2.00
2023-04-02T14:42:02.747Z,2.20
2023-04-02T14:44:37.184Z,2.00
2023-04-02T14:47:25.699Z,2.20
2023-04-02T14:50:19.458Z,2.47
2023-04-02T14:52:50.471Z,2.10
2023-04-02T14:55:33.529Z,3.10
2023-04-02T14:58:04.222Z,1.77
2023-04-02T15:00:40.476Z,2.07
2023-04-02T15:03:31.394Z,2.00
2023-04-02T15:06:06.511Z,2.20
2023-04-02T15:08:35.347Z,1.90
2023-04-02T15:11:08.938Z,1.90
2023-04-02T15:13:54.303Z,2.37
2023-04-02T15:16:24.616Z,2.43
2023-04-02T15:18:59.635Z,2.40
2023-04-02T15:21:56.052Z,2.20
2023-04-02T15:24:51.794Z,2.20
2023-04-02T15:27:34.518Z,2.10
2023-04-02T15:30:01.437Z,2.30
2023-04-02T15:32:34.596Z,2.17
2023-04-02T15:35:08.416Z,2.20
2023-04-02T15:37:46.400Z,2.30
2023-04-02T15:40:19.721Z,2.30
2023-04-02T15:42:55.310Z,2.10
2023-04-02T15:46:00.685Z,2.00
2023-04-02T15:48:48.320Z,2.30
2023-04-02T15:51:39.917Z,2.33
2023-04-02T15:54:46.031Z,2.37
2023-04-02T15:57:23.925Z,1.87
2023-04-02T15:59:57.191Z,1.90
2023-04-02T16:02:55.131Z,1.70
2023-04-02T16:05:41.042Z,1.90
2023-04-02T16:08:13.919Z,1.73
2023-04-02T16:10:43.000Z,1.53
2023-04-02T16:13:22.805Z,1.83
2023-04-02T16:16:17.547Z,1.67
2023-04-02T16:19:05.293Z,1.93
2023-04-02T16:22:10.779Z,1.77
2023-04-02T16:24:38.173Z,2.00
2023-04-02T16:27:37.856Z,1.30
2023-04-02T16:30:23.069Z,2.50
2023-04-02T16:32:56.835Z,1.80
2023-04-02T16:35:42.432Z,1.27
2023-04-02T16:38:31.020Z,1.70
2023-04-02T16:41:23.580Z,2.50
2023-04-02T16:44:32.037Z,3.20
2023-04-02T16:47:21.605Z,3.10
2023-04-02T16:50:33.951Z,2.97
2023-04-02T16:53:23.245Z,2.70
2023-04-02T16:56:33.816Z,2.70
2023-04-02T16:59:07.613Z,2.90
2023-04-02T17:01:44.538Z,3.10
2023-04-02T17:04:46.856Z,2.80
2023-04-02T17:07:40.366Z,2.90
2023-04-02T17:10:30.557Z,2.80
2023-04-02T17:13:03.695Z,2.97
2023-04-02T17:15:39.137Z,2.83
2023-04-02T17:18:20.245Z,2.57
2023-04-02T17:20:48.200Z,2.67
2023-04-02T17:23:16.334Z,2.50
2023-04-02T17:25:48.916Z,2.87
2023-04-02T17:28:19.628Z,2.47
2023-04-02T17:30:49.854Z,2.40
2023-04-02T17:33:18.568Z,2.00
2023-04-02T17:36:08.542Z,2.20
2023-04-02T17:38:58.188Z,1.97
2023-04-02T17:41:42.791Z,2.33
2023-04-02T17:44:33.644Z,2.33
2023-04-02T17:47:09.406Z,2.40
2023-04-02T17:49:55.451Z,2.03
2023-04-02T17:52:25.920Z,2.10
2023-04-02T17:55:21.166Z,2.47
2023-04-02T17:58:11.643Z,1.93
2023-04-02T18:00:57.673Z,1.90
2023-04-02T18:03:36.966Z,1.93
2023-04-02T18:06:19.459Z,2.30
2023-04-02T18:08:54.042Z,1.93
2023-04-02T18:11:38.205Z,1.90
2023-04-02T18:14:33.315Z,1.93
2023-04-02T18:17:21.534Z,1.83
2023-04-02T18:19:54.790Z,1.90
2023-04-02T18:22:23.944Z,1.60
2023-04-02T18:24:56.738Z,3.47
2023-04-02T18:27:38.588Z,1.90
2023-04-02T18:30:09.457Z,1.90
2023-04-02T18:32:56.338Z,2.00
2023-04-02T18:35:41.301Z,2.50
2023-04-02T18:38:29.623Z,1.90
2023-04-02T18:41:03.026Z,1.97
2023-04-02T18:43:43.214Z,2.20
2023-04-02T18:46:31.813Z,2.07
2023-04-02T18:49:06.224Z,2.20
2023-04-02T18:51:36.704Z,2.00
2023-04-02T18:54:09.417Z,2.20
2023-04-02T18:56:39.825Z,2.30
2023-04-02T18:59:06.541Z,2.10
2023-04-02T19:04:26.488Z,2.30
2023-04-02T19:07:33.093Z,2.40
2023-04-02T19:10:09.259Z,2.50
2023-04-02T19:12:55.433Z,2.53
2023-04-02T19:15:44.018Z,2.70
2023-04-02T19:18:32.408Z,2.13
2023-04-02T19:21:41.981Z,2.40
2023-04-02T19:24:34.509Z,2.53
2023-04-02T19:27:25.701Z,2.73
2023-04-02T19:30:05.196Z,2.43
2023-04-02T19:32:53.663Z,2.47
2023-04-02T19:35:41.978Z,2.43
2023-04-02T19:38:42.640Z,2.47
2023-04-02T19:41:35.282Z,2.30
2023-04-02T19:44:02.681Z,2.33
2023-04-02T19:46:30.559Z,2.60
2023-04-02T19:49:17.632Z,2.90
2023-04-02T19:51:44.877Z,2.80
2023-04-02T19:54:14.123Z,3.37
2023-04-02T19:56:42.527Z,3.70
2023-04-02T19:59:17.985Z,3.97
2023-04-02T20:01:47.185Z,4.40
2023-04-02T20:04:14.511Z,3.30
2023-04-02T20:06:41.469Z,3.50
2023-04-02T20:09:08.844Z,3.77
2023-04-02T20:11:37.439Z,3.50
2023-04-02T20:14:04.788Z,3.47
2023-04-02T20:16:32.811Z,3.33
2023-04-02T20:18:59.956Z,3.67
2023-04-02T20:21:27.586Z,3.37
2023-04-02T20:23:55.875Z,4.20
2023-04-02T20:26:23.310Z,5.00
2023-04-02T20:28:50.150Z,4.50
2023-04-02T20:31:18.843Z,4.87
2023-04-02T20:33:46.787Z,4.43
2023-04-02T20:36:15.993Z,3.60
2023-04-02T20:38:43.485Z,3.47
2023-04-02T20:41:10.443Z,3.57
2023-04-02T20:43:40.491Z,3.87
2023-04-02T20:46:10.091Z,5.40
2023-04-02T20:48:37.902Z,6.37
2023-04-02T20:51:06.812Z,5.07
2023-04-02T20:53:35.371Z,4.97
2023-04-02T20:56:07.019Z,4.77
2023-04-02T20:58:35.490Z,4.37
2023-04-02T21:01:11.984Z,4.47
2023-04-02T21:03:40.701Z,4.47
2023-04-02T21:06:19.060Z,4.40
2023-04-02T21:08:46.412Z,5.57
2023-04-02T21:11:14.100Z,4.83
2023-04-02T21:13:43.936Z,4.70
2023-04-02T21:16:20.412Z,4.53
2023-04-02T21:18:49.703Z,4.53
2023-04-02T21:21:16.725Z,3.80
2023-04-02T21:23:44.498Z,4.10
2023-04-02T21:26:17.120Z,4.63
2023-04-02T21:28:45.303Z,4.13
2023-04-02T21:31:18.389Z,4.20
2023-04-02T21:33:48.025Z,3.87
2023-04-02T21:36:17.553Z,4.00
2023-04-02T21:38:56.125Z,3.80
2023-04-02T21:41:26.527Z,3.77
2023-04-02T21:43:55.650Z,4.40
2023-04-02T21:46:26.116Z,4.13
2023-04-02T21:48:54.743Z,4.43
2023-04-02T21:51:24.175Z,4.13
2023-04-02T21:53:54.173Z,3.97
2023-04-02T21:56:29.022Z,3.63
2023-04-02T21:58:57.384Z,4.13
2023-04-02T22:01:28.021Z,3.57
2023-04-02T22:03:56.974Z,4.00
2023-04-02T22:06:25.915Z,3.30
2023-04-02T22:08:55.478Z,3.23
2023-04-02T22:11:26.087Z,4.00
2023-04-02T22:13:53.127Z,3.40
2023-04-02T22:16:25.006Z,3.70
2023-04-02T22:18:53.294Z,3.23
2023-04-02T22:21:20.899Z,3.60
2023-04-02T22:23:49.000Z,3.30
2023-04-02T22:26:17.363Z,3.63
2023-04-02T22:28:44.491Z,4.23
2023-04-02T22:31:17.197Z,3.77
2023-04-02T22:33:45.427Z,4.23
2023-04-02T22:36:13.553Z,3.50
2023-04-02T22:38:41.197Z,4.17
2023-04-02T22:41:13.238Z,3.00
2023-04-02T22:43:41.365Z,2.83
2023-04-02T22:46:09.047Z,3.40
2023-04-02T22:48:36.620Z,3.57
2023-04-02T22:51:03.423Z,3.37
2023-04-02T22:53:30.829Z,3.67
2023-04-02T22:56:11.432Z,3.10
2023-04-02T22:58:38.851Z,3.60
2023-04-02T23:01:06.973Z,4.20
2023-04-02T23:03:34.653Z,3.83
2023-04-02T23:06:04.196Z,3.50
2023-04-02T23:08:31.513Z,3.40
2023-04-02T23:11:03.347Z,3.67
2023-04-02T23:13:31.685Z,3.90
2023-04-02T23:16:01.194Z,3.23
2023-04-02T23:18:29.321Z,3.53
2023-04-02T23:20:56.466Z,3.23
2023-04-02T23:23:24.299Z,2.77
2023-04-02T23:25:51.406Z,3.57
2023-04-02T23:28:18.461Z,3.30
2023-04-02T23:30:45.688Z,3.50
2023-04-02T23:33:12.710Z,3.47
2023-04-02T23:35:39.657Z,3.03
2023-04-02T23:38:07.866Z,3.40
2023-04-02T23:40:35.108Z,3.43
2023-04-02T23:43:02.197Z,3.73
2023-04-02T23:45:29.012Z,3.40
2023-04-02T23:47:55.756Z,3.30
2023-04-02T23:50:22.731Z,3.90
2023-04-02T23:52:49.471Z,3.60
2023-04-02T23:55:17.136Z,3.97
2023-04-02T23:57:43.992Z,3.83
